Hauptseite
METAR-TAF:

METAR-TAF

Flughäfen :

Nouakchott, Mauretanien

Flughafen Nouakchott-Oumtounsy

Breite: 18-18-36N, Länge: 015-58-11W, Höhe: 3 m

Beobachtung

Neuester Wetterbericht von vor 42 Minuten, um 14:00 UTC
Wind 9 kt aus Süd/Südost, variierte zwischen Ost/Südost und Süd
Temperatur 34°C
Luftfeuchtigkeit 18%
Luftdruck 1011 hPa
Sichtweite: 8000 m

METAR: GQNO 241400Z 15009KT 110V190 8000 NSC 34/06 Q1011 NOSIG

Zeit: 14:42 (14:42 UTC)

Prognose

Neuester Wetterbericht von vor 3 Stunden und 42 Minuten, um 11:00 UTC
Gültige Prognose vom 24 um 12 UTC bis 25 um 18 UTC
Wind 10 kt aus Ost
Sichtweite: 7000 m
Übergehend zu
vom 24 um 15 UTC bis 24 um 17 UTC
Wind 10 kt aus Nordwest
Zeitweise
vom 25 um 09 UTC bis 25 um 15 UTC
Wind 12 kt aus Ost/Nordost

TAF: GQNO 241100Z 2412/2518 08010KT 7000 NSC BECMG 2415/2417 32010KT TEMPO 2509/2515 07012KT

Wetterbeobachtungen und Prognosen von mehr als 4000 Flughäfen (METAR und TAF Bericht).

Die verfügbaren Stationen werden durch gelbe und rote Markierungen auf der Karte dargestellt.

Führen Sie die Maus auf sie, um den Namen der Station zu sehen.

Darauf klicken, um die Beobachtung von Wetterbeobachtungen und Prognosen zu sehen.

Um die Karte zu ändern : klicken Sie auf den grünen Tasten mit einem schwarzen Kreuz Zum Vergrößern, auf den grünen Button mit einem Gedankenstrich zu verkleinern, oder auf die grünen Pfeile für benachbarte Karten.


METAR-TAF: